sensor_id;sensor_type;location;lat;lon;timestamp;temperature;humidity
22430;DHT22;11382;48.086;11.632;2022-10-30T00:00:32;11.30;99.90
22430;DHT22;11382;48.086;11.632;2022-10-30T00:03:02;11.20;99.90
22430;DHT22;11382;48.086;11.632;2022-10-30T00:05:30;11.20;99.90
22430;DHT22;11382;48.086;11.632;2022-10-30T00:07:58;11.20;99.90
22430;DHT22;11382;48.086;11.632;2022-10-30T00:10:27;11.10;99.90
22430;DHT22;11382;48.086;11.632;2022-10-30T00:12:55;11.10;99.90
22430;DHT22;11382;48.086;11.632;2022-10-30T00:15:23;11.00;99.90
22430;DHT22;11382;48.086;11.632;2022-10-30T00:17:52;11.10;99.90
22430;DHT22;11382;48.086;11.632;2022-10-30T00:20:22;11.20;99.90
22430;DHT22;11382;48.086;11.632;2022-10-30T00:22:50;11.40;99.90
22430;DHT22;11382;48.086;11.632;2022-10-30T00:25:18;11.60;99.90
22430;DHT22;11382;48.086;11.632;2022-10-30T00:27:46;11.70;99.90
22430;DHT22;11382;48.086;11.632;2022-10-30T00:30:14;11.70;99.90
22430;DHT22;11382;48.086;11.632;2022-10-30T00:32:43;11.80;99.90
22430;DHT22;11382;48.086;11.632;2022-10-30T00:35:11;11.80;99.90
22430;DHT22;11382;48.086;11.632;2022-10-30T00:37:40;11.80;99.90
22430;DHT22;11382;48.086;11.632;2022-10-30T00:40:14;11.60;99.90
22430;DHT22;11382;48.086;11.632;2022-10-30T00:42:42;11.60;99.90
22430;DHT22;11382;48.086;11.632;2022-10-30T00:45:12;11.70;99.90
22430;DHT22;11382;48.086;11.632;2022-10-30T00:47:42;11.70;99.90
22430;DHT22;11382;48.086;11.632;2022-10-30T00:50:13;11.60;99.90
22430;DHT22;11382;48.086;11.632;2022-10-30T00:52:48;11.40;99.90
22430;DHT22;11382;48.086;11.632;2022-10-30T00:55:20;11.40;99.90
22430;DHT22;11382;48.086;11.632;2022-10-30T00:57:49;11.50;99.90
22430;DHT22;11382;48.086;11.632;2022-10-30T01:00:19;11.40;99.90
22430;DHT22;11382;48.086;11.632;2022-10-30T01:02:49;11.30;99.90
22430;DHT22;11382;48.086;11.632;2022-10-30T01:05:21;11.30;99.90
22430;DHT22;11382;48.086;11.632;2022-10-30T01:07:53;11.20;99.90
22430;DHT22;11382;48.086;11.632;2022-10-30T01:10:22;11.10;99.90
22430;DHT22;11382;48.086;11.632;2022-10-30T01:12:53;11.10;99.90
22430;DHT22;11382;48.086;11.632;2022-10-30T01:15:27;11.00;99.90
22430;DHT22;11382;48.086;11.632;2022-10-30T01:18:06;11.00;99.90
22430;DHT22;11382;48.086;11.632;2022-10-30T01:20:48;10.90;99.90
22430;DHT22;11382;48.086;11.632;2022-10-30T01:23:30;10.90;99.90
22430;DHT22;11382;48.086;11.632;2022-10-30T01:26:09;10.80;99.90
22430;DHT22;11382;48.086;11.632;2022-10-30T01:28:50;10.70;99.90
22430;DHT22;11382;48.086;11.632;2022-10-30T01:31:36;10.70;99.90
22430;DHT22;11382;48.086;11.632;2022-10-30T01:34:10;10.50;99.90
22430;DHT22;11382;48.086;11.632;2022-10-30T01:36:48;10.50;99.90
22430;DHT22;11382;48.086;11.632;2022-10-30T01:39:22;10.40;99.90
22430;DHT22;11382;48.086;11.632;2022-10-30T01:41:51;10.40;99.90
22430;DHT22;11382;48.086;11.632;2022-10-30T01:44:22;10.40;99.90
22430;DHT22;11382;48.086;11.632;2022-10-30T01:47:12;10.30;99.90
22430;DHT22;11382;48.086;11.632;2022-10-30T01:50:04;10.20;99.90
22430;DHT22;11382;48.086;11.632;2022-10-30T01:52:41;10.20;99.90
22430;DHT22;11382;48.086;11.632;2022-10-30T01:55:21;10.10;99.90
22430;DHT22;11382;48.086;11.632;2022-10-30T01:57:56;10.10;99.90
22430;DHT22;11382;48.086;11.632;2022-10-30T02:00:26;10.10;99.90
22430;DHT22;11382;48.086;11.632;2022-10-30T02:02:54;10.00;99.90
22430;DHT22;11382;48.086;11.632;2022-10-30T02:05:35;10.00;99.90
22430;DHT22;11382;48.086;11.632;2022-10-30T02:08:05;10.10;99.90
22430;DHT22;11382;48.086;11.632;2022-10-30T02:10:38;9.80;99.90
22430;DHT22;11382;48.086;11.632;2022-10-30T02:13:08;9.80;99.90
22430;DHT22;11382;48.086;11.632;2022-10-30T02:15:36;9.70;99.90
22430;DHT22;11382;48.086;11.632;2022-10-30T02:18:05;9.70;99.90
22430;DHT22;11382;48.086;11.632;2022-10-30T02:20:34;9.70;99.90
22430;DHT22;11382;48.086;11.632;2022-10-30T02:23:03;9.70;99.90
22430;DHT22;11382;48.086;11.632;2022-10-30T02:25:34;9.70;99.90
22430;DHT22;11382;48.086;11.632;2022-10-30T02:28:02;9.50;99.90
22430;DHT22;11382;48.086;11.632;2022-10-30T02:30:30;9.60;99.90
22430;DHT22;11382;48.086;11.632;2022-10-30T02:33:00;9.60;99.90
22430;DHT22;11382;48.086;11.632;2022-10-30T02:35:29;9.60;99.90
22430;DHT22;11382;48.086;11.632;2022-10-30T02:37:58;9.60;99.90
22430;DHT22;11382;48.086;11.632;2022-10-30T02:40:27;9.50;99.90
22430;DHT22;11382;48.086;11.632;2022-10-30T02:42:55;9.40;99.90
22430;DHT22;11382;48.086;11.632;2022-10-30T02:45:23;9.40;99.90
22430;DHT22;11382;48.086;11.632;2022-10-30T02:47:51;9.40;99.90
22430;DHT22;11382;48.086;11.632;2022-10-30T02:50:20;9.30;99.90
22430;DHT22;11382;48.086;11.632;2022-10-30T02:52:50;9.40;99.90
22430;DHT22;11382;48.086;11.632;2022-10-30T02:55:19;9.40;99.90
22430;DHT22;11382;48.086;11.632;2022-10-30T02:57:48;9.40;99.90
22430;DHT22;11382;48.086;11.632;2022-10-30T03:00:16;9.30;99.90
22430;DHT22;11382;48.086;11.632;2022-10-30T03:02:44;9.30;99.90
22430;DHT22;11382;48.086;11.632;2022-10-30T03:05:13;9.20;99.90
22430;DHT22;11382;48.086;11.632;2022-10-30T03:07:41;9.10;99.90
22430;DHT22;11382;48.086;11.632;2022-10-30T03:10:09;9.20;99.90
22430;DHT22;11382;48.086;11.632;2022-10-30T03:12:38;9.30;99.90
22430;DHT22;11382;48.086;11.632;2022-10-30T03:15:07;9.30;99.90
22430;DHT22;11382;48.086;11.632;2022-10-30T03:17:36;9.20;99.90
22430;DHT22;11382;48.086;11.632;2022-10-30T03:20:05;9.10;99.90
22430;DHT22;11382;48.086;11.632;2022-10-30T03:22:33;9.00;99.90
22430;DHT22;11382;48.086;11.632;2022-10-30T03:25:01;9.00;99.90
22430;DHT22;11382;48.086;11.632;2022-10-30T03:27:29;9.00;99.90
22430;DHT22;11382;48.086;11.632;2022-10-30T03:29:59;9.00;99.90
22430;DHT22;11382;48.086;11.632;2022-10-30T03:32:28;8.90;99.90
22430;DHT22;11382;48.086;11.632;2022-10-30T03:34:59;8.90;99.90
22430;DHT22;11382;48.086;11.632;2022-10-30T03:37:27;8.90;99.90
22430;DHT22;11382;48.086;11.632;2022-10-30T03:39:55;9.00;99.90
22430;DHT22;11382;48.086;11.632;2022-10-30T03:42:23;9.10;99.90
22430;DHT22;11382;48.086;11.632;2022-10-30T03:44:51;9.10;99.90
22430;DHT22;11382;48.086;11.632;2022-10-30T03:47:21;9.10;99.90
22430;DHT22;11382;48.086;11.632;2022-10-30T03:49:49;9.10;99.90
22430;DHT22;11382;48.086;11.632;2022-10-30T03:52:20;9.20;99.90
22430;DHT22;11382;48.086;11.632;2022-10-30T03:54:50;9.30;99.90
22430;DHT22;11382;48.086;11.632;2022-10-30T03:57:19;9.30;99.90
22430;DHT22;11382;48.086;11.632;2022-10-30T04:00:04;9.40;99.90
22430;DHT22;11382;48.086;11.632;2022-10-30T04:02:55;9.40;99.90
22430;DHT22;11382;48.086;11.632;2022-10-30T04:05:26;9.40;99.90
22430;DHT22;11382;48.086;11.632;2022-10-30T04:07:56;9.40;99.90
22430;DHT22;11382;48.086;11.632;2022-10-30T04:10:28;9.30;99.90
22430;DHT22;11382;48.086;11.632;2022-10-30T04:13:00;9.40;99.90
22430;DHT22;11382;48.086;11.632;2022-10-30T04:15:28;9.40;99.90
22430;DHT22;11382;48.086;11.632;2022-10-30T04:17:58;9.40;99.90
22430;DHT22;11382;48.086;11.632;2022-10-30T04:20:28;9.40;99.90
22430;DHT22;11382;48.086;11.632;2022-10-30T04:22:58;9.40;99.90
22430;DHT22;11382;48.086;11.632;2022-10-30T04:25:27;9.50;99.90
22430;DHT22;11382;48.086;11.632;2022-10-30T04:27:58;9.50;99.90
22430;DHT22;11382;48.086;11.632;2022-10-30T04:30:27;9.50;99.90
22430;DHT22;11382;48.086;11.632;2022-10-30T04:33:03;9.40;99.90
22430;DHT22;11382;48.086;11.632;2022-10-30T04:35:34;9.40;99.90
22430;DHT22;11382;48.086;11.632;2022-10-30T04:38:08;9.40;99.90
22430;DHT22;11382;48.086;11.632;2022-10-30T04:40:38;9.40;99.90
22430;DHT22;11382;48.086;11.632;2022-10-30T04:43:07;9.50;99.90
22430;DHT22;11382;48.086;11.632;2022-10-30T04:45:37;9.50;99.90
22430;DHT22;11382;48.086;11.632;2022-10-30T04:48:11;9.60;99.90
22430;DHT22;11382;48.086;11.632;2022-10-30T04:50:41;9.60;99.90
22430;DHT22;11382;48.086;11.632;2022-10-30T04:53:15;9.70;99.90
22430;DHT22;11382;48.086;11.632;2022-10-30T04:55:46;9.70;99.90
22430;DHT22;11382;48.086;11.632;2022-10-30T04:58:14;9.70;99.90
22430;DHT22;11382;48.086;11.632;2022-10-30T05:00:48;9.70;99.90
22430;DHT22;11382;48.086;11.632;2022-10-30T05:03:20;9.70;99.90
22430;DHT22;11382;48.086;11.632;2022-10-30T05:05:56;9.70;99.90
22430;DHT22;11382;48.086;11.632;2022-10-30T05:08:25;9.70;99.90
22430;DHT22;11382;48.086;11.632;2022-10-30T05:10:53;9.70;99.90
22430;DHT22;11382;48.086;11.632;2022-10-30T05:13:21;9.70;99.90
22430;DHT22;11382;48.086;11.632;2022-10-30T05:15:53;9.60;99.90
22430;DHT22;11382;48.086;11.632;2022-10-30T05:18:23;9.60;99.90
22430;DHT22;11382;48.086;11.632;2022-10-30T05:20:51;9.50;99.90
22430;DHT22;11382;48.086;11.632;2022-10-30T05:23:21;9.50;99.90
22430;DHT22;11382;48.086;11.632;2022-10-30T05:25:50;9.50;99.90
22430;DHT22;11382;48.086;11.632;2022-10-30T05:28:19;9.40;99.90
22430;DHT22;11382;48.086;11.632;2022-10-30T05:30:53;9.40;99.90
22430;DHT22;11382;48.086;11.632;2022-10-30T05:33:46;9.40;99.90
22430;DHT22;11382;48.086;11.632;2022-10-30T05:36:13;9.40;99.90
22430;DHT22;11382;48.086;11.632;2022-10-30T05:38:42;9.30;99.90
22430;DHT22;11382;48.086;11.632;2022-10-30T05:41:20;9.30;99.90
22430;DHT22;11382;48.086;11.632;2022-10-30T05:43:48;9.30;99.90
22430;DHT22;11382;48.086;11.632;2022-10-30T05:46:16;9.40;99.90
22430;DHT22;11382;48.086;11.632;2022-10-30T05:48:46;9.40;99.90
22430;DHT22;11382;48.086;11.632;2022-10-30T05:51:14;9.50;99.90
22430;DHT22;11382;48.086;11.632;2022-10-30T05:53:49;9.50;99.90
22430;DHT22;11382;48.086;11.632;2022-10-30T05:56:20;9.50;99.90
22430;DHT22;11382;48.086;11.632;2022-10-30T05:58:48;9.60;99.90
22430;DHT22;11382;48.086;11.632;2022-10-30T06:01:17;9.60;99.90
22430;DHT22;11382;48.086;11.632;2022-10-30T06:03:51;9.60;99.90
22430;DHT22;11382;48.086;11.632;2022-10-30T06:06:19;9.60;99.90
22430;DHT22;11382;48.086;11.632;2022-10-30T06:08:52;9.70;99.90
22430;DHT22;11382;48.086;11.632;2022-10-30T06:11:34;9.80;99.90
22430;DHT22;11382;48.086;11.632;2022-10-30T06:14:03;9.90;99.90
22430;DHT22;11382;48.086;11.632;2022-10-30T06:16:43;10.00;99.90
22430;DHT22;11382;48.086;11.632;2022-10-30T06:19:34;10.20;99.90
22430;DHT22;11382;48.086;11.632;2022-10-30T06:22:25;10.20;99.90
22430;DHT22;11382;48.086;11.632;2022-10-30T06:24:59;10.30;99.90
22430;DHT22;11382;48.086;11.632;2022-10-30T06:27:45;10.40;99.90
22430;DHT22;11382;48.086;11.632;2022-10-30T06:30:13;10.60;99.90
22430;DHT22;11382;48.086;11.632;2022-10-30T06:32:42;10.70;99.90
22430;DHT22;11382;48.086;11.632;2022-10-30T06:35:11;10.70;99.90
22430;DHT22;11382;48.086;11.632;2022-10-30T06:37:44;10.80;99.90
22430;DHT22;11382;48.086;11.632;2022-10-30T06:40:14;10.90;99.90
22430;DHT22;11382;48.086;11.632;2022-10-30T06:43:00;11.00;99.90
22430;DHT22;11382;48.086;11.632;2022-10-30T06:45:35;11.20;99.90
22430;DHT22;11382;48.086;11.632;2022-10-30T06:48:03;11.30;99.90
22430;DHT22;11382;48.086;11.632;2022-10-30T06:50:38;11.40;99.90
22430;DHT22;11382;48.086;11.632;2022-10-30T06:53:07;11.40;99.90
22430;DHT22;11382;48.086;11.632;2022-10-30T06:55:36;11.50;99.90
22430;DHT22;11382;48.086;11.632;2022-10-30T06:58:39;11.50;99.90
22430;DHT22;11382;48.086;11.632;2022-10-30T07:01:11;11.60;99.90
22430;DHT22;11382;48.086;11.632;2022-10-30T07:03:58;11.60;99.90
22430;DHT22;11382;48.086;11.632;2022-10-30T07:06:28;11.60;99.90
22430;DHT22;11382;48.086;11.632;2022-10-30T07:08:58;11.70;99.90
22430;DHT22;11382;48.086;11.632;2022-10-30T07:11:26;11.90;99.90
22430;DHT22;11382;48.086;11.632;2022-10-30T07:14:16;12.20;99.90
22430;DHT22;11382;48.086;11.632;2022-10-30T07:17:07;12.50;99.90
22430;DHT22;11382;48.086;11.632;2022-10-30T07:19:36;12.90;99.90
22430;DHT22;11382;48.086;11.632;2022-10-30T07:22:06;13.10;99.90
22430;DHT22;11382;48.086;11.632;2022-10-30T07:24:37;13.60;99.90
22430;DHT22;11382;48.086;11.632;2022-10-30T07:27:17;14.10;99.90
22430;DHT22;11382;48.086;11.632;2022-10-30T07:29:52;14.20;99.90
22430;DHT22;11382;48.086;11.632;2022-10-30T07:32:41;14.40;99.90
22430;DHT22;11382;48.086;11.632;2022-10-30T07:35:13;14.70;99.90
22430;DHT22;11382;48.086;11.632;2022-10-30T07:38:04;15.00;99.90
22430;DHT22;11382;48.086;11.632;2022-10-30T07:40:42;15.40;99.90
22430;DHT22;11382;48.086;11.632;2022-10-30T07:43:27;15.80;99.90
22430;DHT22;11382;48.086;11.632;2022-10-30T07:46:21;16.40;99.90
22430;DHT22;11382;48.086;11.632;2022-10-30T07:49:07;17.60;99.90
22430;DHT22;11382;48.086;11.632;2022-10-30T07:51:40;18.70;99.90
22430;DHT22;11382;48.086;11.632;2022-10-30T07:54:12;19.50;99.90
22430;DHT22;11382;48.086;11.632;2022-10-30T07:56:41;20.40;99.90
22430;DHT22;11382;48.086;11.632;2022-10-30T07:59:18;21.40;99.90
22430;DHT22;11382;48.086;11.632;2022-10-30T08:02:05;22.30;99.90
22430;DHT22;11382;48.086;11.632;2022-10-30T08:04:48;22.80;99.90
22430;DHT22;11382;48.086;11.632;2022-10-30T08:07:47;23.20;99.80
22430;DHT22;11382;48.086;11.632;2022-10-30T08:10:17;23.60;97.50
22430;DHT22;11382;48.086;11.632;2022-10-30T08:12:45;23.60;96.90
22430;DHT22;11382;48.086;11.632;2022-10-30T08:15:14;23.80;95.90
22430;DHT22;11382;48.086;11.632;2022-10-30T08:17:43;24.20;95.80
22430;DHT22;11382;48.086;11.632;2022-10-30T08:20:13;24.80;95.40
22430;DHT22;11382;48.086;11.632;2022-10-30T08:22:46;25.50;93.60
22430;DHT22;11382;48.086;11.632;2022-10-30T08:25:15;26.70;91.40
22430;DHT22;11382;48.086;11.632;2022-10-30T08:27:53;27.40;90.70
22430;DHT22;11382;48.086;11.632;2022-10-30T08:30:25;27.70;87.20
22430;DHT22;11382;48.086;11.632;2022-10-30T08:32:58;27.90;84.80
22430;DHT22;11382;48.086;11.632;2022-10-30T08:35:47;28.20;83.20
22430;DHT22;11382;48.086;11.632;2022-10-30T08:38:17;28.50;81.00
22430;DHT22;11382;48.086;11.632;2022-10-30T08:40:52;29.20;79.40
22430;DHT22;11382;48.086;11.632;2022-10-30T08:43:23;29.40;75.70
22430;DHT22;11382;48.086;11.632;2022-10-30T08:45:52;28.90;74.30
22430;DHT22;11382;48.086;11.632;2022-10-30T08:48:21;29.80;72.30
22430;DHT22;11382;48.086;11.632;2022-10-30T08:50:49;30.40;72.50
22430;DHT22;11382;48.086;11.632;2022-10-30T08:53:26;30.30;70.00
22430;DHT22;11382;48.086;11.632;2022-10-30T08:55:54;29.90;71.50
22430;DHT22;11382;48.086;11.632;2022-10-30T08:58:33;30.00;71.90
22430;DHT22;11382;48.086;11.632;2022-10-30T09:01:01;30.40;69.70
22430;DHT22;11382;48.086;11.632;2022-10-30T09:04:05;31.10;69.40
22430;DHT22;11382;48.086;11.632;2022-10-30T09:06:53;31.40;68.20
22430;DHT22;11382;48.086;11.632;2022-10-30T09:09:21;32.20;66.40
22430;DHT22;11382;48.086;11.632;2022-10-30T09:11:52;32.20;67.80
22430;DHT22;11382;48.086;11.632;2022-10-30T09:14:23;32.60;66.70
22430;DHT22;11382;48.086;11.632;2022-10-30T09:16:51;32.60;65.70
22430;DHT22;11382;48.086;11.632;2022-10-30T09:19:21;32.00;63.00
22430;DHT22;11382;48.086;11.632;2022-10-30T09:21:50;32.30;64.60
22430;DHT22;11382;48.086;11.632;2022-10-30T09:24:19;32.60;63.00
22430;DHT22;11382;48.086;11.632;2022-10-30T09:26:47;33.60;61.70
22430;DHT22;11382;48.086;11.632;2022-10-30T09:29:26;34.00;59.40
22430;DHT22;11382;48.086;11.632;2022-10-30T09:31:58;34.50;57.80
22430;DHT22;11382;48.086;11.632;2022-10-30T09:34:29;34.90;59.20
22430;DHT22;11382;48.086;11.632;2022-10-30T09:37:02;35.00;56.40
22430;DHT22;11382;48.086;11.632;2022-10-30T09:39:35;35.20;56.30
22430;DHT22;11382;48.086;11.632;2022-10-30T09:42:16;35.10;53.90
22430;DHT22;11382;48.086;11.632;2022-10-30T09:45:04;35.30;54.10
22430;DHT22;11382;48.086;11.632;2022-10-30T09:48:14;34.40;53.50
22430;DHT22;11382;48.086;11.632;2022-10-30T09:51:02;34.10;55.70
22430;DHT22;11382;48.086;11.632;2022-10-30T09:53:43;34.60;53.50
22430;DHT22;11382;48.086;11.632;2022-10-30T09:56:28;33.90;54.10
22430;DHT22;11382;48.086;11.632;2022-10-30T09:59:07;33.30;54.70
22430;DHT22;11382;48.086;11.632;2022-10-30T10:01:43;31.80;55.50
22430;DHT22;11382;48.086;11.632;2022-10-30T10:04:22;32.60;56.90
22430;DHT22;11382;48.086;11.632;2022-10-30T10:07:05;33.00;54.60
22430;DHT22;11382;48.086;11.632;2022-10-30T10:09:49;33.10;54.00
22430;DHT22;11382;48.086;11.632;2022-10-30T10:12:39;34.00;54.80
22430;DHT22;11382;48.086;11.632;2022-10-30T10:15:13;34.60;51.90
22430;DHT22;11382;48.086;11.632;2022-10-30T10:17:45;34.70;52.00
22430;DHT22;11382;48.086;11.632;2022-10-30T10:20:16;34.30;52.40
22430;DHT22;11382;48.086;11.632;2022-10-30T10:22:51;34.70;52.10
22430;DHT22;11382;48.086;11.632;2022-10-30T10:25:19;33.80;54.20
22430;DHT22;11382;48.086;11.632;2022-10-30T10:27:56;33.50;54.60
22430;DHT22;11382;48.086;11.632;2022-10-30T10:30:31;34.10;53.90
22430;DHT22;11382;48.086;11.632;2022-10-30T10:33:14;33.40;55.30
22430;DHT22;11382;48.086;11.632;2022-10-30T10:35:53;33.90;53.10
22430;DHT22;11382;48.086;11.632;2022-10-30T10:38:36;34.70;51.70
22430;DHT22;11382;48.086;11.632;2022-10-30T10:41:12;35.20;52.00
22430;DHT22;11382;48.086;11.632;2022-10-30T10:44:02;34.00;51.50
22430;DHT22;11382;48.086;11.632;2022-10-30T10:46:48;34.60;51.40
22430;DHT22;11382;48.086;11.632;2022-10-30T10:49:30;34.70;51.70
22430;DHT22;11382;48.086;11.632;2022-10-30T10:52:09;33.60;50.30
22430;DHT22;11382;48.086;11.632;2022-10-30T10:54:41;34.00;51.80
22430;DHT22;11382;48.086;11.632;2022-10-30T10:57:15;34.30;51.60
22430;DHT22;11382;48.086;11.632;2022-10-30T10:59:46;33.50;51.10
22430;DHT22;11382;48.086;11.632;2022-10-30T11:02:31;34.20;52.30
22430;DHT22;11382;48.086;11.632;2022-10-30T11:05:07;33.80;51.80
22430;DHT22;11382;48.086;11.632;2022-10-30T11:07:45;32.50;51.90
22430;DHT22;11382;48.086;11.632;2022-10-30T11:10:16;32.80;54.30
22430;DHT22;11382;48.086;11.632;2022-10-30T11:12:44;32.80;52.20
22430;DHT22;11382;48.086;11.632;2022-10-30T11:15:21;32.70;53.20
22430;DHT22;11382;48.086;11.632;2022-10-30T11:17:54;32.30;53.00
22430;DHT22;11382;48.086;11.632;2022-10-30T11:20:33;31.70;52.60
22430;DHT22;11382;48.086;11.632;2022-10-30T11:23:03;30.60;54.60
22430;DHT22;11382;48.086;11.632;2022-10-30T11:25:51;31.00;55.20
22430;DHT22;11382;48.086;11.632;2022-10-30T11:28:33;31.20;55.00
22430;DHT22;11382;48.086;11.632;2022-10-30T11:31:20;31.10;55.10
22430;DHT22;11382;48.086;11.632;2022-10-30T11:33:49;31.10;55.10
22430;DHT22;11382;48.086;11.632;2022-10-30T11:36:22;31.10;54.90
22430;DHT22;11382;48.086;11.632;2022-10-30T11:38:50;31.20;55.80
22430;DHT22;11382;48.086;11.632;2022-10-30T11:41:19;31.10;54.80
22430;DHT22;11382;48.086;11.632;2022-10-30T11:43:47;31.20;54.00
22430;DHT22;11382;48.086;11.632;2022-10-30T11:46:21;32.20;54.10
22430;DHT22;11382;48.086;11.632;2022-10-30T11:48:50;32.30;51.80
22430;DHT22;11382;48.086;11.632;2022-10-30T11:51:37;31.40;51.90
22430;DHT22;11382;48.086;11.632;2022-10-30T11:54:14;31.80;54.00
22430;DHT22;11382;48.086;11.632;2022-10-30T11:56:46;31.70;57.20
22430;DHT22;11382;48.086;11.632;2022-10-30T11:59:18;31.30;55.50
22430;DHT22;11382;48.086;11.632;2022-10-30T12:01:57;30.40;55.10
22430;DHT22;11382;48.086;11.632;2022-10-30T12:04:27;29.80;55.50
22430;DHT22;11382;48.086;11.632;2022-10-30T12:07:18;29.50;57.50
22430;DHT22;11382;48.086;11.632;2022-10-30T12:09:47;29.40;58.70
22430;DHT22;11382;48.086;11.632;2022-10-30T12:12:21;28.90;58.00
22430;DHT22;11382;48.086;11.632;2022-10-30T12:14:51;28.50;57.00
22430;DHT22;11382;48.086;11.632;2022-10-30T12:17:20;28.10;57.60
22430;DHT22;11382;48.086;11.632;2022-10-30T12:19:51;27.70;58.70
22430;DHT22;11382;48.086;11.632;2022-10-30T12:22:27;27.70;58.70
22430;DHT22;11382;48.086;11.632;2022-10-30T12:24:56;27.40;59.60
22430;DHT22;11382;48.086;11.632;2022-10-30T12:27:26;26.90;59.20
22430;DHT22;11382;48.086;11.632;2022-10-30T12:30:01;26.80;59.80
22430;DHT22;11382;48.086;11.632;2022-10-30T12:32:43;27.10;61.90
22430;DHT22;11382;48.086;11.632;2022-10-30T12:35:25;26.70;60.60
22430;DHT22;11382;48.086;11.632;2022-10-30T12:37:56;26.30;60.90
22430;DHT22;11382;48.086;11.632;2022-10-30T12:40:29;26.40;62.30
22430;DHT22;11382;48.086;11.632;2022-10-30T12:43:01;26.10;61.50
22430;DHT22;11382;48.086;11.632;2022-10-30T12:45:34;26.30;62.50
22430;DHT22;11382;48.086;11.632;2022-10-30T12:48:13;26.00;65.80
22430;DHT22;11382;48.086;11.632;2022-10-30T12:50:49;26.10;64.60
22430;DHT22;11382;48.086;11.632;2022-10-30T12:53:26;26.10;64.80
22430;DHT22;11382;48.086;11.632;2022-10-30T12:55:59;26.00;65.00
22430;DHT22;11382;48.086;11.632;2022-10-30T12:58:32;26.00;65.40
22430;DHT22;11382;48.086;11.632;2022-10-30T13:01:10;26.20;65.30
22430;DHT22;11382;48.086;11.632;2022-10-30T13:03:42;25.80;67.40
22430;DHT22;11382;48.086;11.632;2022-10-30T13:06:16;25.70;66.70
22430;DHT22;11382;48.086;11.632;2022-10-30T13:08:58;25.70;67.40
22430;DHT22;11382;48.086;11.632;2022-10-30T13:11:37;25.90;69.60
22430;DHT22;11382;48.086;11.632;2022-10-30T13:14:12;26.10;72.30
22430;DHT22;11382;48.086;11.632;2022-10-30T13:16:41;25.90;70.50
22430;DHT22;11382;48.086;11.632;2022-10-30T13:19:11;25.60;70.70
22430;DHT22;11382;48.086;11.632;2022-10-30T13:21:45;25.70;73.00
22430;DHT22;11382;48.086;11.632;2022-10-30T13:24:20;25.70;69.50
22430;DHT22;11382;48.086;11.632;2022-10-30T13:26:53;25.30;71.60
22430;DHT22;11382;48.086;11.632;2022-10-30T13:29:27;25.30;74.50
22430;DHT22;11382;48.086;11.632;2022-10-30T13:32:08;24.80;71.90
22430;DHT22;11382;48.086;11.632;2022-10-30T13:34:45;24.70;72.00
22430;DHT22;11382;48.086;11.632;2022-10-30T13:37:20;24.80;73.20
22430;DHT22;11382;48.086;11.632;2022-10-30T13:40:09;24.80;73.10
22430;DHT22;11382;48.086;11.632;2022-10-30T13:42:53;24.90;71.60
22430;DHT22;11382;48.086;11.632;2022-10-30T13:45:36;24.80;71.70
22430;DHT22;11382;48.086;11.632;2022-10-30T13:48:10;25.00;72.90
22430;DHT22;11382;48.086;11.632;2022-10-30T13:50:53;25.10;71.00
22430;DHT22;11382;48.086;11.632;2022-10-30T13:53:31;24.60;72.00
22430;DHT22;11382;48.086;11.632;2022-10-30T13:56:03;24.60;72.40
22430;DHT22;11382;48.086;11.632;2022-10-30T13:58:34;24.50;72.60
22430;DHT22;11382;48.086;11.632;2022-10-30T14:01:07;24.20;72.80
22430;DHT22;11382;48.086;11.632;2022-10-30T14:03:45;24.10;73.70
22430;DHT22;11382;48.086;11.632;2022-10-30T14:06:25;24.20;74.20
22430;DHT22;11382;48.086;11.632;2022-10-30T14:09:05;24.10;74.60
22430;DHT22;11382;48.086;11.632;2022-10-30T14:11:36;24.00;74.70
22430;DHT22;11382;48.086;11.632;2022-10-30T14:14:27;23.80;76.20
22430;DHT22;11382;48.086;11.632;2022-10-30T14:17:11;23.90;76.80
22430;DHT22;11382;48.086;11.632;2022-10-30T14:22:41;23.70;78.30
22430;DHT22;11382;48.086;11.632;2022-10-30T14:25:12;23.70;77.70
22430;DHT22;11382;48.086;11.632;2022-10-30T14:27:42;23.70;78.50
22430;DHT22;11382;48.086;11.632;2022-10-30T14:30:17;23.60;79.30
22430;DHT22;11382;48.086;11.632;2022-10-30T14:32:49;23.40;79.90
22430;DHT22;11382;48.086;11.632;2022-10-30T14:35:38;23.10;80.80
22430;DHT22;11382;48.086;11.632;2022-10-30T14:38:24;23.20;81.00
22430;DHT22;11382;48.086;11.632;2022-10-30T14:44:17;22.90;81.90
22430;DHT22;11382;48.086;11.632;2022-10-30T14:46:59;22.90;82.40
22430;DHT22;11382;48.086;11.632;2022-10-30T14:49:40;22.80;82.90
22430;DHT22;11382;48.086;11.632;2022-10-30T14:52:29;22.70;82.80
22430;DHT22;11382;48.086;11.632;2022-10-30T14:55:14;22.60;83.10
22430;DHT22;11382;48.086;11.632;2022-10-30T14:57:46;22.50;83.60
22430;DHT22;11382;48.086;11.632;2022-10-30T15:00:39;22.30;85.40
22430;DHT22;11382;48.086;11.632;2022-10-30T15:03:17;22.20;84.80
22430;DHT22;11382;48.086;11.632;2022-10-30T15:05:50;22.10;85.40
22430;DHT22;11382;48.086;11.632;2022-10-30T15:08:32;22.10;86.50
22430;DHT22;11382;48.086;11.632;2022-10-30T15:11:28;22.10;85.30
22430;DHT22;11382;48.086;11.632;2022-10-30T15:14:00;22.00;85.60
22430;DHT22;11382;48.086;11.632;2022-10-30T15:16:34;22.00;85.40
22430;DHT22;11382;48.086;11.632;2022-10-30T15:19:05;22.00;85.60
22430;DHT22;11382;48.086;11.632;2022-10-30T15:21:40;22.00;85.30
22430;DHT22;11382;48.086;11.632;2022-10-30T15:24:12;21.90;85.40
22430;DHT22;11382;48.086;11.632;2022-10-30T15:26:43;21.90;85.90
22430;DHT22;11382;48.086;11.632;2022-10-30T15:29:16;21.90;89.50
22430;DHT22;11382;48.086;11.632;2022-10-30T15:31:56;21.80;89.10
22430;DHT22;11382;48.086;11.632;2022-10-30T15:34:26;21.80;88.10
22430;DHT22;11382;48.086;11.632;2022-10-30T15:36:55;21.60;88.10
22430;DHT22;11382;48.086;11.632;2022-10-30T15:39:24;21.60;89.70
22430;DHT22;11382;48.086;11.632;2022-10-30T15:41:54;21.40;89.50
22430;DHT22;11382;48.086;11.632;2022-10-30T15:44:26;21.20;89.80
22430;DHT22;11382;48.086;11.632;2022-10-30T15:46:58;21.10;90.30
22430;DHT22;11382;48.086;11.632;2022-10-30T15:49:30;20.90;90.70
22430;DHT22;11382;48.086;11.632;2022-10-30T15:52:00;20.90;90.80
22430;DHT22;11382;48.086;11.632;2022-10-30T15:54:32;20.70;91.40
22430;DHT22;11382;48.086;11.632;2022-10-30T15:57:00;20.60;91.90
22430;DHT22;11382;48.086;11.632;2022-10-30T15:59:50;20.40;92.90
22430;DHT22;11382;48.086;11.632;2022-10-30T16:02:22;20.20;93.70
22430;DHT22;11382;48.086;11.632;2022-10-30T16:04:52;20.00;94.80
22430;DHT22;11382;48.086;11.632;2022-10-30T16:07:22;19.70;96.30
22430;DHT22;11382;48.086;11.632;2022-10-30T16:09:51;19.30;97.60